createdAt,value
2023-05-17T00:02:08.808Z,97751.63
2023-05-17T00:04:42.342Z,97746.25
2023-05-17T00:07:15.018Z,97724.81
2023-05-17T00:09:54.536Z,97740.09
2023-05-17T00:12:33.771Z,97744.47
2023-05-17T00:15:07.575Z,97750.97
2023-05-17T00:17:41.096Z,97723.53
2023-05-17T00:20:19.051Z,97756.03
2023-05-17T00:25:33.214Z,97755.84
2023-05-17T00:30:51.591Z,97736.03
2023-05-17T00:33:22.402Z,97750.00
2023-05-17T00:36:02.548Z,97742.72
2023-05-17T00:38:34.596Z,97755.56
2023-05-17T00:41:04.776Z,97763.38
2023-05-17T00:43:35.534Z,97756.88
2023-05-17T00:46:08.710Z,97759.94
2023-05-17T00:48:52.664Z,97753.06
2023-05-17T00:51:34.053Z,97763.53
2023-05-17T00:54:04.913Z,97742.38
2023-05-17T00:56:39.695Z,97761.91
2023-05-17T00:59:10.716Z,97760.44
2023-05-17T01:01:48.122Z,97761.28
2023-05-17T01:04:19.503Z,97761.13
2023-05-17T01:06:48.904Z,97767.63
2023-05-17T01:09:22.651Z,97763.56
2023-05-17T01:12:05.696Z,97749.44
2023-05-17T01:14:55.521Z,97773.66
2023-05-17T01:18:10.791Z,97748.31
2023-05-17T01:20:48.531Z,97766.00
2023-05-17T01:23:38.218Z,97773.19
2023-05-17T01:26:34.323Z,97769.78
2023-05-17T01:29:11.343Z,97773.50
2023-05-17T01:31:44.971Z,97774.97
2023-05-17T01:34:16.610Z,97772.69
2023-05-17T01:36:56.185Z,97775.94
2023-05-17T01:39:35.201Z,97768.31
2023-05-17T01:42:26.859Z,97764.75
2023-05-17T01:45:19.966Z,97778.41
2023-05-17T01:48:47.011Z,97781.97
2023-05-17T01:51:24.103Z,97780.19
2023-05-17T01:53:58.458Z,97785.56
2023-05-17T01:56:33.529Z,97758.09
2023-05-17T01:59:10.039Z,97775.16
2023-05-17T02:01:42.745Z,97776.63
2023-05-17T02:04:32.700Z,97785.59
2023-05-17T02:07:12.278Z,97786.75
2023-05-17T02:10:00.352Z,97785.94
2023-05-17T02:12:30.286Z,97788.19
2023-05-17T02:15:04.306Z,97787.91
2023-05-17T02:17:48.803Z,97777.47
2023-05-17T02:20:22.002Z,97778.13
2023-05-17T02:22:52.464Z,97779.06
2023-05-17T02:25:28.659Z,97784.63
2023-05-17T02:27:59.650Z,97782.34
2023-05-17T02:30:43.512Z,97775.84
2023-05-17T02:33:22.096Z,97786.56
2023-05-17T02:35:56.607Z,97785.91
2023-05-17T02:38:28.085Z,97780.22
2023-05-17T02:41:00.966Z,97767.53
2023-05-17T02:43:37.503Z,97773.53
2023-05-17T02:46:12.562Z,97788.38
2023-05-17T02:48:50.549Z,97761.84
2023-05-17T02:51:33.905Z,97780.69
2023-05-17T02:54:17.041Z,97769.00
2023-05-17T02:56:48.596Z,97777.13
2023-05-17T02:59:20.542Z,97778.13
2023-05-17T03:01:54.752Z,97791.63
2023-05-17T03:04:39.665Z,97786.72
2023-05-17T03:07:18.832Z,97795.69
2023-05-17T03:09:54.497Z,97799.75
2023-05-17T03:12:29.645Z,97793.91
2023-05-17T03:15:05.658Z,97797.97
2023-05-17T03:17:49.467Z,97794.53
2023-05-17T03:23:08.771Z,97799.13
2023-05-17T03:25:49.384Z,97754.22
2023-05-17T03:31:07.737Z,97816.06
2023-05-17T03:33:41.529Z,97799.63
2023-05-17T03:36:16.774Z,97790.84
2023-05-17T03:39:01.057Z,97819.44
2023-05-17T03:41:42.635Z,97823.38
2023-05-17T03:47:00.115Z,97831.00
2023-05-17T03:49:34.397Z,97809.53
2023-05-17T03:52:05.732Z,97833.13
2023-05-17T03:54:48.359Z,97834.75
2023-05-17T03:57:31.993Z,97837.53
2023-05-17T04:00:02.895Z,97839.34
2023-05-17T04:03:03.157Z,97842.09
2023-05-17T04:05:40.268Z,97842.25
2023-05-17T04:08:14.037Z,97850.88
2023-05-17T04:10:48.208Z,97854.78
2023-05-17T04:13:22.261Z,97845.47
2023-05-17T04:15:52.819Z,97843.56
2023-05-17T04:18:30.426Z,97849.41
2023-05-17T04:21:01.522Z,97851.34
2023-05-17T04:26:23.531Z,97861.78
2023-05-17T04:28:55.699Z,97860.31
2023-05-17T04:31:31.371Z,97857.88
2023-05-17T04:34:02.699Z,97858.66
2023-05-17T04:36:56.794Z,97862.09
2023-05-17T04:39:36.843Z,97858.50
2023-05-17T04:42:07.980Z,97860.16
2023-05-17T04:44:48.953Z,97859.97
2023-05-17T04:47:25.796Z,97861.13
2023-05-17T04:49:59.597Z,97863.25
2023-05-17T04:52:32.956Z,97870.72
2023-05-17T04:55:08.473Z,97869.91
2023-05-17T04:57:40.625Z,97843.56
2023-05-17T05:00:16.857Z,97871.19
2023-05-17T05:02:55.598Z,97879.81
2023-05-17T05:05:36.080Z,97872.66
2023-05-17T05:08:09.528Z,97850.06
2023-05-17T05:10:59.381Z,97880.63
2023-05-17T05:16:23.900Z,97882.09
2023-05-17T05:18:54.970Z,97887.28
2023-05-17T05:21:33.206Z,97894.63
2023-05-17T05:24:04.348Z,97859.81
2023-05-17T05:26:34.607Z,97872.34
2023-05-17T05:29:07.377Z,97905.88
2023-05-17T05:31:37.796Z,97867.31
2023-05-17T05:34:13.515Z,97911.25
2023-05-17T05:36:55.423Z,97917.28
2023-05-17T05:39:29.032Z,97909.94
2023-05-17T05:42:00.535Z,97913.53
2023-05-17T05:44:28.901Z,97923.81
2023-05-17T05:46:59.557Z,97930.97
2023-05-17T05:49:30.891Z,97936.03
2023-05-17T05:52:07.580Z,97917.78
2023-05-17T05:57:24.081Z,97950.19
2023-05-17T05:59:54.134Z,97953.91
2023-05-17T06:02:28.688Z,97943.50
2023-05-17T06:05:00.256Z,97956.50
2023-05-17T06:07:44.940Z,97971.84
2023-05-17T06:10:15.436Z,97973.47
2023-05-17T06:12:45.192Z,97973.94
2023-05-17T06:15:15.367Z,97967.78
2023-05-17T06:17:50.246Z,97981.94
2023-05-17T06:20:23.820Z,97977.03
2023-05-17T06:23:01.522Z,97970.19
2023-05-17T06:25:31.952Z,97981.25
2023-05-17T06:28:18.492Z,97937.81
2023-05-17T06:30:48.655Z,97976.41
2023-05-17T06:33:33.520Z,97986.81
2023-05-17T06:36:09.618Z,97983.06
2023-05-17T06:38:43.529Z,97990.91
2023-05-17T06:41:14.502Z,97989.72
2023-05-17T06:44:02.952Z,97995.75
2023-05-17T06:46:33.338Z,98001.19
2023-05-17T06:49:12.608Z,97994.31
2023-05-17T06:51:45.707Z,98006.03
2023-05-17T06:54:16.587Z,98010.28
2023-05-17T06:56:54.454Z,98020.56
2023-05-17T07:02:21.580Z,98024.63
2023-05-17T07:04:55.995Z,98026.25
2023-05-17T07:07:33.147Z,98030.97
2023-05-17T07:10:08.091Z,98031.63
2023-05-17T07:12:50.095Z,98017.97
2023-05-17T07:15:29.513Z,98034.22
2023-05-17T07:18:07.933Z,98048.41
2023-05-17T07:20:44.905Z,98054.78
2023-05-17T07:23:14.995Z,98038.47
2023-05-17T07:25:48.836Z,98044.69
2023-05-17T07:28:21.100Z,98043.34
2023-05-17T07:30:56.621Z,98047.75
2023-05-17T07:33:25.026Z,98042.50
2023-05-17T07:36:03.598Z,98055.75
2023-05-17T07:38:31.710Z,98056.72
2023-05-17T07:41:03.262Z,98058.66
2023-05-17T07:43:35.022Z,98060.47
2023-05-17T07:46:04.161Z,98067.13
2023-05-17T07:48:38.940Z,98055.84
2023-05-17T07:51:14.272Z,98069.22
2023-05-17T07:53:44.655Z,98065.97
2023-05-17T07:56:21.837Z,98066.75
2023-05-17T07:58:55.499Z,98045.63
2023-05-17T08:01:29.888Z,98064.81
2023-05-17T08:04:05.485Z,98044.63
2023-05-17T08:06:41.562Z,98066.13
2023-05-17T08:09:14.123Z,98066.28
2023-05-17T08:11:46.015Z,98078.72
2023-05-17T08:14:21.132Z,98077.88
2023-05-17T08:16:52.097Z,98080.63
2023-05-17T08:22:10.698Z,98092.72
2023-05-17T08:27:30.025Z,98096.31
2023-05-17T08:30:14.922Z,98103.97
2023-05-17T08:32:56.307Z,98105.56
2023-05-17T08:38:11.736Z,98114.03
2023-05-17T08:40:45.380Z,98120.06
2023-05-17T08:43:17.119Z,98124.66
2023-05-17T08:45:54.308Z,98123.66
2023-05-17T08:48:24.406Z,98122.44
2023-05-17T08:50:57.963Z,98134.03
2023-05-17T08:53:28.548Z,98132.88
2023-05-17T08:56:09.960Z,98140.88
2023-05-17T08:58:57.589Z,98137.75
2023-05-17T09:01:37.670Z,98140.28
2023-05-17T09:04:15.387Z,98144.53
2023-05-17T09:06:55.888Z,98147.97
2023-05-17T09:09:37.132Z,98150.44
2023-05-17T09:12:09.828Z,98163.50
2023-05-17T09:14:40.291Z,98158.25
2023-05-17T09:17:11.989Z,98149.84
2023-05-17T09:19:51.122Z,98160.56
2023-05-17T09:22:26.139Z,98170.97
2023-05-17T09:25:03.667Z,98168.53
2023-05-17T09:27:38.762Z,98165.28
2023-05-17T09:30:16.016Z,98176.38
2023-05-17T09:35:48.537Z,98183.22
2023-05-17T09:38:19.868Z,98167.66
2023-05-17T09:40:54.330Z,98181.53
2023-05-17T09:43:29.506Z,98188.22
2023-05-17T09:46:03.155Z,98191.63
2023-05-17T09:48:35.646Z,98182.97
2023-05-17T09:51:23.593Z,98184.16
2023-05-17T09:54:03.083Z,98192.03
2023-05-17T09:56:35.596Z,98197.81
2023-05-17T09:59:13.821Z,98201.41
2023-05-17T10:01:56.642Z,98198.00
2023-05-17T10:04:29.112Z,98203.53
2023-05-17T10:07:02.013Z,98207.25
2023-05-17T10:09:39.640Z,98213.16
2023-05-17T10:12:17.454Z,98212.00
2023-05-17T10:14:49.071Z,98216.22
2023-05-17T10:17:26.840Z,98220.91
2023-05-17T10:20:00.501Z,98227.56
2023-05-17T10:22:32.581Z,98232.31
2023-05-17T10:25:03.333Z,98237.38
2023-05-17T10:27:37.176Z,98243.47
2023-05-17T10:30:19.505Z,98246.53
2023-05-17T10:32:58.839Z,98251.47
2023-05-17T10:35:39.345Z,98260.63
2023-05-17T10:38:38.716Z,98257.34
2023-05-17T10:44:11.199Z,98269.94
2023-05-17T10:46:40.333Z,98263.88
2023-05-17T10:49:17.125Z,98261.63
2023-05-17T10:51:48.104Z,98280.53
2023-05-17T10:54:22.889Z,98287.25
2023-05-17T10:57:03.666Z,98287.03
2023-05-17T10:59:36.765Z,98288.28
2023-05-17T11:02:09.654Z,98294.38
2023-05-17T11:04:43.185Z,98296.25
2023-05-17T11:07:31.530Z,98301.44
2023-05-17T11:10:24.390Z,98303.59
2023-05-17T11:13:01.262Z,98304.72
2023-05-17T11:15:34.730Z,98308.13
2023-05-17T11:18:22.635Z,98305.88
2023-05-17T11:21:18.580Z,98316.19
2023-05-17T11:23:49.699Z,98315.69
2023-05-17T11:26:33.350Z,98307.72
2023-05-17T11:29:18.214Z,98319.47
2023-05-17T11:31:54.911Z,98306.69
2023-05-17T11:34:30.901Z,98317.28
2023-05-17T11:37:05.159Z,98316.75
2023-05-17T11:39:43.681Z,98315.94
2023-05-17T11:42:31.721Z,98310.53
2023-05-17T11:45:07.177Z,98302.34
2023-05-17T11:47:55.981Z,98310.19
2023-05-17T11:50:27.911Z,98300.13
2023-05-17T11:53:00.593Z,98310.91
2023-05-17T11:55:31.390Z,98316.66
2023-05-17T11:58:06.176Z,98313.59
2023-05-17T12:00:42.215Z,98329.75
2023-05-17T12:03:22.913Z,98313.88
2023-05-17T12:05:58.209Z,98327.78
2023-05-17T12:08:32.710Z,98317.94
2023-05-17T12:11:08.534Z,98323.66
2023-05-17T12:13:46.174Z,98327.06
2023-05-17T12:16:18.154Z,98322.47
2023-05-17T12:19:04.023Z,98330.38
2023-05-17T12:21:34.614Z,98329.63
2023-05-17T12:24:08.130Z,98334.25
2023-05-17T12:26:45.679Z,98332.00
2023-05-17T12:29:18.261Z,98332.06
2023-05-17T12:31:52.871Z,98340.63
2023-05-17T12:37:16.708Z,98339.00
2023-05-17T12:39:48.497Z,98324.19
2023-05-17T12:42:21.685Z,98341.66
2023-05-17T12:44:54.690Z,98347.84
2023-05-17T12:47:37.759Z,98339.56
2023-05-17T12:50:25.470Z,98342.28
2023-05-17T12:52:53.426Z,98347.91
2023-05-17T12:55:32.693Z,98348.19
2023-05-17T12:58:11.965Z,98355.22
2023-05-17T13:00:43.558Z,98357.03
2023-05-17T13:03:16.059Z,98351.31
2023-05-17T13:06:00.524Z,98361.59
2023-05-17T13:08:33.217Z,98347.56
2023-05-17T13:11:20.177Z,98333.66
2023-05-17T13:13:51.527Z,98350.47
2023-05-17T13:16:31.831Z,98343.63
2023-05-17T13:19:03.715Z,98355.91
2023-05-17T13:21:41.370Z,98358.50
2023-05-17T13:24:20.534Z,98352.88
2023-05-17T13:29:40.297Z,98352.25
2023-05-17T13:32:11.669Z,98351.59
2023-05-17T13:34:41.072Z,98340.31
2023-05-17T13:37:12.409Z,98357.81
2023-05-17T13:39:49.827Z,98347.56
2023-05-17T13:42:30.604Z,98351.44
2023-05-17T13:45:03.594Z,98343.78
2023-05-17T13:47:40.322Z,98342.81
2023-05-17T13:50:12.802Z,98347.50
2023-05-17T13:55:27.637Z,98348.84
2023-05-17T13:58:01.317Z,98342.34
2023-05-17T14:00:35.273Z,98345.69
2023-05-17T14:03:15.382Z,98344.94
2023-05-17T14:05:52.259Z,98336.53
2023-05-17T14:08:29.260Z,98347.41
2023-05-17T14:11:00.248Z,98321.69
2023-05-17T14:13:32.709Z,98340.94
2023-05-17T14:16:06.600Z,98339.06
2023-05-17T14:18:37.062Z,98346.22
2023-05-17T14:21:05.410Z,98353.28
2023-05-17T14:23:55.717Z,98340.75
2023-05-17T14:29:14.553Z,98349.09
2023-05-17T14:31:45.820Z,98357.16
2023-05-17T14:34:15.559Z,98349.34
2023-05-17T14:36:51.858Z,98354.66
2023-05-17T14:39:21.588Z,98352.81
2023-05-17T14:41:57.147Z,98335.53
2023-05-17T14:44:29.293Z,98368.09
2023-05-17T14:46:59.881Z,98369.91
2023-05-17T14:49:36.268Z,98343.72
2023-05-17T14:52:06.715Z,98353.22
2023-05-17T14:54:40.471Z,98371.03
2023-05-17T14:57:11.844Z,98364.47
2023-05-17T14:59:46.625Z,98368.75
2023-05-17T15:02:20.228Z,98346.41
2023-05-17T15:04:51.538Z,98375.78
2023-05-17T15:07:32.576Z,98372.38
2023-05-17T15:10:04.115Z,98378.72
2023-05-17T15:15:23.391Z,98366.97
2023-05-17T15:17:56.687Z,98316.38
2023-05-17T15:20:28.002Z,98367.72
2023-05-17T15:22:58.204Z,98365.50
2023-05-17T15:25:33.386Z,98357.16
2023-05-17T15:28:03.599Z,98362.03
2023-05-17T15:30:44.709Z,98362.38
2023-05-17T15:33:13.364Z,98372.53
2023-05-17T15:35:47.837Z,98370.22
2023-05-17T15:38:27.216Z,98367.94
2023-05-17T15:41:23.981Z,98373.91
2023-05-17T15:43:55.687Z,98369.22
2023-05-17T15:46:27.187Z,98368.16
2023-05-17T15:49:06.177Z,98371.69
2023-05-17T15:51:45.318Z,98375.53
2023-05-17T15:54:23.218Z,98371.97
2023-05-17T15:57:01.826Z,98361.50
2023-05-17T15:59:29.890Z,98371.47
2023-05-17T16:02:06.548Z,98308.94
2023-05-17T16:04:38.888Z,98378.84
2023-05-17T16:07:11.045Z,98378.38
2023-05-17T16:09:50.565Z,98377.81
2023-05-17T16:12:24.302Z,98381.84
2023-05-17T16:14:54.373Z,98381.84
2023-05-17T16:17:33.315Z,98386.31
2023-05-17T16:20:07.299Z,98386.47
2023-05-17T16:22:51.864Z,98390.72
2023-05-17T16:28:11.273Z,98390.41
2023-05-17T16:33:27.087Z,98384.56
2023-05-17T16:38:46.583Z,98407.31
2023-05-17T16:41:17.410Z,98404.56
2023-05-17T16:43:45.385Z,98402.09
2023-05-17T16:46:21.387Z,98407.31
2023-05-17T16:48:54.911Z,98421.56
2023-05-17T16:51:27.609Z,98414.31
2023-05-17T16:54:06.864Z,98423.03
2023-05-17T16:56:51.114Z,98429.22
2023-05-17T16:59:41.893Z,98421.75
2023-05-17T17:02:13.233Z,98401.31
2023-05-17T17:04:47.383Z,98423.69
2023-05-17T17:07:17.782Z,98427.00
2023-05-17T17:09:47.021Z,98438.44
2023-05-17T17:12:28.534Z,98441.56
2023-05-17T17:15:02.082Z,98451.69
2023-05-17T17:20:18.857Z,98463.09
2023-05-17T17:22:51.826Z,98456.06
2023-05-17T17:25:24.714Z,98473.22
2023-05-17T17:28:09.469Z,98473.22
2023-05-17T17:30:48.085Z,98479.91
2023-05-17T17:33:18.647Z,98479.88
2023-05-17T17:35:48.681Z,98490.16
2023-05-17T17:38:17.231Z,98473.31
2023-05-17T17:40:47.357Z,98483.94
2023-05-17T17:43:17.661Z,98499.44
2023-05-17T17:45:52.135Z,98499.22
2023-05-17T17:48:25.892Z,98500.19
2023-05-17T17:50:56.520Z,98502.13
2023-05-17T17:53:28.795Z,98508.03
2023-05-17T17:56:02.554Z,98514.22
2023-05-17T17:58:30.859Z,98518.63
2023-05-17T18:01:01.541Z,98517.63
2023-05-17T18:03:30.365Z,98522.81
2023-05-17T18:06:07.146Z,98524.91
2023-05-17T18:08:37.897Z,98527.66
2023-05-17T18:11:09.159Z,98526.94
2023-05-17T18:13:43.112Z,98534.09
2023-05-17T18:16:13.777Z,98533.53
2023-05-17T18:18:47.937Z,98531.25
2023-05-17T18:21:18.759Z,98533.19
2023-05-17T18:23:56.427Z,98541.28
2023-05-17T18:26:41.945Z,98536.47
2023-05-17T18:29:15.892Z,98536.47
2023-05-17T18:31:46.453Z,98536.78
2023-05-17T18:34:18.284Z,98547.41
2023-05-17T18:36:48.362Z,98539.81
2023-05-17T18:39:16.541Z,98546.03
2023-05-17T18:41:49.876Z,98547.13
2023-05-17T18:44:24.678Z,98530.91
2023-05-17T18:49:52.944Z,98559.50
2023-05-17T18:52:23.907Z,98538.19
2023-05-17T18:55:00.534Z,98563.91
2023-05-17T18:57:30.698Z,98573.13
2023-05-17T19:00:02.766Z,98569.03
2023-05-17T19:02:44.066Z,98578.16
2023-05-17T19:05:14.419Z,98573.84
2023-05-17T19:07:51.867Z,98576.72
2023-05-17T19:10:28.800Z,98585.47
2023-05-17T19:12:59.374Z,98588.22
2023-05-17T19:18:19.018Z,98599.25
2023-05-17T19:20:48.573Z,98591.53
2023-05-17T19:23:19.099Z,98604.16
2023-05-17T19:25:51.457Z,98610.22
2023-05-17T19:28:21.836Z,98608.25
2023-05-17T19:30:52.603Z,98614.81
2023-05-17T19:33:34.206Z,98617.38
2023-05-17T19:36:05.252Z,98618.22
2023-05-17T19:38:39.600Z,98620.25
2023-05-17T19:41:19.413Z,98614.03
2023-05-17T19:43:49.851Z,98607.66
2023-05-17T19:46:25.956Z,98618.50
2023-05-17T19:48:59.826Z,98621.59
2023-05-17T19:51:31.532Z,98626.53
2023-05-17T19:54:05.123Z,98621.69
2023-05-17T19:56:34.799Z,98625.09
2023-05-17T19:59:17.405Z,98627.97
2023-05-17T20:01:53.432Z,98623.63
2023-05-17T20:04:24.997Z,98626.22
2023-05-17T20:06:55.924Z,98628.97
2023-05-17T20:09:33.427Z,98632.56
2023-05-17T20:12:11.028Z,98615.25
2023-05-17T20:14:41.524Z,98611.75
2023-05-17T20:17:12.924Z,98618.72
2023-05-17T20:19:44.442Z,98643.25
2023-05-17T20:22:15.516Z,98636.03
2023-05-17T20:24:45.741Z,98647.97
2023-05-17T20:27:19.256Z,98646.22
2023-05-17T20:29:55.443Z,98641.00
2023-05-17T20:32:26.091Z,98639.03
2023-05-17T20:35:00.608Z,98634.72
2023-05-17T20:37:31.621Z,98644.16
2023-05-17T20:40:09.506Z,98641.28
2023-05-17T20:42:45.209Z,98626.31
2023-05-17T20:45:20.828Z,98646.53
2023-05-17T20:47:57.116Z,98648.78
2023-05-17T20:50:43.905Z,98650.72
2023-05-17T20:53:14.881Z,98661.13
2023-05-17T20:55:49.696Z,98666.84
2023-05-17T20:58:33.766Z,98650.97
2023-05-17T21:01:07.178Z,98669.13
2023-05-17T21:03:42.700Z,98664.59
2023-05-17T21:06:16.526Z,98662.22
2023-05-17T21:08:46.566Z,98663.13
2023-05-17T21:11:24.987Z,98659.69
2023-05-17T21:13:55.942Z,98656.78
2023-05-17T21:16:27.145Z,98661.53
2023-05-17T21:18:57.710Z,98668.41
2023-05-17T21:21:43.765Z,98662.44
2023-05-17T21:26:59.633Z,98672.59
2023-05-17T21:29:28.498Z,98672.69
2023-05-17T21:32:02.170Z,98670.75
2023-05-17T21:34:49.453Z,98668.50
2023-05-17T21:37:24.378Z,98673.22
2023-05-17T21:39:56.261Z,98681.00
2023-05-17T21:42:24.689Z,98678.44
2023-05-17T21:45:10.092Z,98681.50
2023-05-17T21:47:47.177Z,98681.34
2023-05-17T21:50:18.748Z,98678.28
2023-05-17T21:52:55.428Z,98683.81
2023-05-17T21:55:36.898Z,98695.41
2023-05-17T21:58:19.014Z,98690.97
2023-05-17T22:00:55.963Z,98690.47
2023-05-17T22:03:32.274Z,98687.69
2023-05-17T22:06:05.216Z,98700.81
2023-05-17T22:08:45.209Z,98705.53
2023-05-17T22:11:25.374Z,98693.44
2023-05-17T22:14:01.839Z,98698.97
2023-05-17T22:16:33.956Z,98697.34
2023-05-17T22:19:11.467Z,98692.25
2023-05-17T22:21:47.966Z,98694.94
2023-05-17T22:24:19.719Z,98694.09
2023-05-17T22:26:51.691Z,98688.88
2023-05-17T22:32:19.701Z,98693.69
2023-05-17T22:34:50.981Z,98694.47
2023-05-17T22:37:22.902Z,98694.34
2023-05-17T22:39:56.126Z,98690.66
2023-05-17T22:42:27.244Z,98691.06
2023-05-17T22:45:05.117Z,98694.84
2023-05-17T22:47:38.989Z,98683.25
2023-05-17T22:50:09.763Z,98705.00
2023-05-17T22:52:41.380Z,98710.53
2023-05-17T22:55:16.463Z,98691.00
2023-05-17T22:57:48.053Z,98699.34
2023-05-17T23:00:31.412Z,98700.75
2023-05-17T23:03:02.197Z,98692.94
2023-05-17T23:05:35.947Z,98708.94
2023-05-17T23:10:52.335Z,98682.94
2023-05-17T23:13:20.823Z,98698.56
2023-05-17T23:15:59.737Z,98692.19
2023-05-17T23:18:37.569Z,98701.69
2023-05-17T23:21:16.871Z,98694.41
2023-05-17T23:23:45.702Z,98690.63
2023-05-17T23:26:26.246Z,98680.28
2023-05-17T23:28:56.927Z,98690.56
2023-05-17T23:31:32.195Z,98676.59
2023-05-17T23:34:01.443Z,98681.25
2023-05-17T23:36:33.763Z,98687.88
2023-05-17T23:39:03.628Z,98693.13
2023-05-17T23:41:43.494Z,98683.31
2023-05-17T23:44:14.883Z,98683.88
2023-05-17T23:46:45.347Z,98694.00
2023-05-17T23:49:15.946Z,98693.03
2023-05-17T23:51:48.927Z,98689.88
2023-05-17T23:54:22.887Z,98643.97
2023-05-17T23:56:54.362Z,98687.72
2023-05-17T23:59:36.436Z,98669.28
